Weather at UNFICYP OP22 Heliport

Public forecast

Using degrees Celsius for public forecast. Weather courtesy of forecast.io.

Closest aviation weather report (METAR) to UNFICYP OP22 Heliport

Closest report is Paphos International Airport, 30.1 nm (55.7 km) SW.

2024/06/22 05:00 (retrieved 26 minutes ago)

LCPH 220500Z AUTO VRB02KT 9999 FEW019 28/22 Q1003 NOSIG

Closest aviation forecast (TAF) to UNFICYP OP22 Heliport

Forecast is more than 12 hours old.

Closest forecast is Hmeimim Air Base, 151.7 nm (281.0 km) E.

2024/06/21 06:36 (retrieved 23 hours ago)

TAF TAF OSLK 210500Z 2106/2206 24010KT 9999 FEW030 BECMG 2120/2122 VRB03KT CAVOK